Time;durP1;ratioP1;P1;durP2;ratioP2;P2;SDS_P1;SDS_P2;PMS_P1;PMS_P2;Temp;Humidity;BMP_temperature;BMP_pressure;BME280_temperature;BME280_humidity;BME280_pressure;Samples;Min_cycle;Max_cycle;Signal;HPM_P1;HPM_P2
2023/12/31 00:01:18;;;;;;;;;;;;;;;21.33;27.42;98150.72;4995073;28;972;-75
2023/12/31 00:03:43;;;;;;;;;;;;;;;21.84;27.23;98156.75;4978425;28;1518;-75
2023/12/31 00:06:09;;;;;;;;;;;;;;;21.67;27.22;98160.84;4978707;28;946;-75
2023/12/31 00:08:34;;;;;;;;;;;;;;;21.88;26.85;98153.06;4978320;28;1985;-75
2023/12/31 00:11:00;;;;;;;;;;;;;;;21.80;27.22;98146.75;4962264;28;1157;-75
2023/12/31 00:13:26;;;;;;;;;;;;;;;21.98;26.91;98157.66;4994486;28;1001;-75
2023/12/31 00:15:52;;;;;;;;;;;;;;;21.62;27.17;98149.25;4997748;28;1022;-75
2023/12/31 00:18:17;;;;;;;;;;;;;;;21.63;27.21;98148.81;5002224;28;1084;-75
2023/12/31 00:20:43;;;;;;;;;;;;;;;21.77;27.10;98151.28;5034886;28;920;-75
2023/12/31 00:23:11;;;;;;;;;;;;;;;21.79;27.11;98148.00;5034996;28;948;-74
2023/12/31 00:25:37;;;;;;;;;;;;;;;21.94;26.73;98154.09;5034422;28;897;-75
2023/12/31 00:28:03;;;;;;;;;;;;;;;22.05;26.80;98154.63;5018378;28;1914;-75
2023/12/31 00:30:29;;;;;;;;;;;;;;;21.88;26.75;98158.72;5034815;28;940;-75
2023/12/31 00:32:55;;;;;;;;;;;;;;;21.73;26.93;98161.91;5001991;28;1261;-75
2023/12/31 00:35:21;;;;;;;;;;;;;;;21.53;27.44;98166.84;5034803;28;1215;-75
2023/12/31 00:37:48;;;;;;;;;;;;;;;21.99;26.86;98171.38;5018819;28;1224;-75
2023/12/31 00:40:14;;;;;;;;;;;;;;;21.84;27.02;98172.97;5034807;28;896;-75
2023/12/31 00:42:39;;;;;;;;;;;;;;;21.87;27.08;98162.81;5018510;28;986;-74
2023/12/31 00:45:05;;;;;;;;;;;;;;;21.86;26.96;98173.31;5035850;28;953;-75
2023/12/31 00:47:31;;;;;;;;;;;;;;;21.61;27.28;98179.59;5016800;28;1910;-75
2023/12/31 00:49:57;;;;;;;;;;;;;;;21.61;27.12;98179.59;5017187;28;1145;-75
2023/12/31 00:52:22;;;;;;;;;;;;;;;21.52;27.47;98187.91;5017036;28;1273;-74
2023/12/31 00:54:50;;;;;;;;;;;;;;;21.63;27.23;98187.66;5033401;28;1133;-75
2023/12/31 00:57:16;;;;;;;;;;;;;;;21.72;27.13;98174.47;5033333;28;906;-74
2023/12/31 00:59:42;;;;;;;;;;;;;;;21.84;26.89;98175.81;5016770;28;1421;-75
2023/12/31 01:02:08;;;;;;;;;;;;;;;21.74;26.61;98182.53;5033236;28;1468;-75
2023/12/31 01:04:34;;;;;;;;;;;;;;;21.54;27.08;98174.09;5033179;28;1229;-75
2023/12/31 01:07:01;;;;;;;;;;;;;;;21.71;26.85;98178.56;5033081;28;936;-75
2023/12/31 01:09:27;;;;;;;;;;;;;;;21.88;26.89;98175.72;5033101;28;1906;-75
2023/12/31 01:11:53;;;;;;;;;;;;;;;21.89;26.85;98171.66;5033257;28;1117;-75
2023/12/31 01:14:18;;;;;;;;;;;;;;;22.02;26.71;98175.34;5000126;28;1132;-75
2023/12/31 01:16:44;;;;;;;;;;;;;;;21.91;26.59;98174.81;5033084;28;1102;-75
2023/12/31 01:19:09;;;;;;;;;;;;;;;21.63;26.95;98174.28;5016712;28;1483;-74
2023/12/31 01:21:35;;;;;;;;;;;;;;;21.47;27.60;98172.25;5033494;28;1035;-75
2023/12/31 01:24:01;;;;;;;;;;;;;;;21.96;26.93;98182.78;4984135;28;1350;-75
2023/12/31 01:26:26;;;;;;;;;;;;;;;22.03;26.58;98172.09;5033364;28;1074;-75
2023/12/31 01:28:52;;;;;;;;;;;;;;;21.87;26.81;98174.94;4999994;28;1961;-75
2023/12/31 01:31:21;;;;;;;;;;;;;;;21.91;26.71;98174.81;5032795;28;1002;-75
2023/12/31 01:33:46;;;;;;;;;;;;;;;21.70;27.16;98176.16;5016792;28;1381;-74
2023/12/31 01:36:20;;;;;;;;;;;;;;;21.68;26.87;98172.97;5033912;28;956;-75
2023/12/31 01:38:45;;;;;;;;;;;;;;;21.94;26.67;98173.94;5020998;28;1079;-75
2023/12/31 01:41:11;;;;;;;;;;;;;;;21.99;26.55;98167.75;5020236;28;1307;-75
2023/12/31 01:43:37;;;;;;;;;;;;;;;22.01;26.85;98170.91;5003806;28;1116;-74
2023/12/31 01:46:03;;;;;;;;;;;;;;;21.90;26.86;98176.06;5020215;28;1129;-75
2023/12/31 01:48:28;;;;;;;;;;;;;;;21.89;27.01;98168.81;5004444;28;1970;-75
2023/12/31 01:50:54;;;;;;;;;;;;;;;21.75;27.05;98161.44;5039411;28;874;-74
2023/12/31 01:53:20;;;;;;;;;;;;;;;21.69;27.23;98169.69;5037858;28;886;-75
2023/12/31 01:55:45;;;;;;;;;;;;;;;21.62;27.24;98167.03;5019848;28;1117;-75
2023/12/31 01:58:11;;;;;;;;;;;;;;;21.62;27.27;98172.69;5003544;28;1151;-75
2023/12/31 02:00:37;;;;;;;;;;;;;;;21.71;27.44;98170.06;5019878;28;1217;-75
2023/12/31 02:03:02;;;;;;;;;;;;;;;21.67;27.56;98172.16;5020069;28;1186;-75
2023/12/31 02:05:28;;;;;;;;;;;;;;;22.05;27.04;98163.13;5019911;28;1272;-75
2023/12/31 02:07:53;;;;;;;;;;;;;;;21.98;27.12;98169.00;5036127;28;1976;-75
2023/12/31 02:10:19;;;;;;;;;;;;;;;21.73;27.55;98175.28;5036029;28;990;-75
2023/12/31 02:12:45;;;;;;;;;;;;;;;21.94;27.27;98173.94;5019954;28;1037;-75
2023/12/31 02:15:10;;;;;;;;;;;;;;;21.89;27.08;98165.97;5019250;28;1210;-75
2023/12/31 02:17:36;;;;;;;;;;;;;;;21.80;27.35;98164.56;5036122;28;1079;-75
2023/12/31 02:20:02;;;;;;;;;;;;;;;21.53;27.31;98161.19;5019464;28;1209;-75
2023/12/31 02:22:28;;;;;;;;;;;;;;;21.85;27.35;98166.84;5035620;28;1197;-74
2023/12/31 02:24:54;;;;;;;;;;;;;;;21.75;27.57;98162.25;5055546;28;1005;-74
2023/12/31 02:27:19;;;;;;;;;;;;;;;21.96;26.94;98168.63;5038993;28;1902;-75
2023/12/31 02:29:45;;;;;;;;;;;;;;;21.87;27.39;98162.81;5039008;28;1097;-75
2023/12/31 02:32:10;;;;;;;;;;;;;;;21.56;27.44;98160.31;5055597;28;971;-74
2023/12/31 02:34:36;;;;;;;;;;;;;;;21.73;27.22;98169.59;5038931;28;1083;-75
2023/12/31 02:37:02;;;;;;;;;;;;;;;21.69;27.61;98175.34;5038920;28;1532;-74
2023/12/31 02:39:28;;;;;;;;;;;;;;;21.70;27.69;98165.59;5038999;28;1289;-75
2023/12/31 02:41:53;;;;;;;;;;;;;;;22.00;26.96;98166.50;5055258;28;1155;-76
2023/12/31 02:44:19;;;;;;;;;;;;;;;22.00;27.25;98160.84;5055667;28;936;-75
2023/12/31 02:46:44;;;;;;;;;;;;;;;21.86;27.27;98156.31;5027304;28;1265;-75
2023/12/31 02:49:11;;;;;;;;;;;;;;;22.01;27.36;98162.41;5037828;28;1985;-75
2023/12/31 02:51:37;;;;;;;;;;;;;;;22.22;26.88;98169.59;5006261;28;1119;-75
2023/12/31 02:54:03;;;;;;;;;;;;;;;21.87;27.37;98163.59;5022280;28;1422;-75
2023/12/31 02:56:29;;;;;;;;;;;;;;;21.67;27.44;98165.72;5038803;28;1211;-74
2023/12/31 02:58:55;;;;;;;;;;;;;;;21.38;28.04;98166.38;5022285;28;1005;-75
2023/12/31 03:01:21;;;;;;;;;;;;;;;21.92;27.32;98170.78;5036684;28;1282;-75
2023/12/31 03:03:47;;;;;;;;;;;;;;;22.03;26.87;98171.28;5019849;28;1192;-75
2023/12/31 03:06:14;;;;;;;;;;;;;;;21.93;27.23;98173.16;5019673;28;1237;-74
2023/12/31 03:08:39;;;;;;;;;;;;;;;22.09;26.77;98175.97;5003476;28;1902;-74
2023/12/31 03:11:07;;;;;;;;;;;;;;;21.73;27.39;98172.44;5035121;28;1003;-75
2023/12/31 03:13:32;;;;;;;;;;;;;;;21.67;27.41;98172.16;5003492;28;1119;-75
2023/12/31 03:16:02;;;;;;;;;;;;;;;21.91;27.25;98177.66;5037357;28;977;-75
2023/12/31 03:18:28;;;;;;;;;;;;;;;21.88;27.12;98172.88;5036201;28;1115;-75
2023/12/31 03:20:54;;;;;;;;;;;;;;;21.76;27.38;98163.88;5019569;28;1127;-75
2023/12/31 03:23:19;;;;;;;;;;;;;;;22.01;27.10;98168.09;5035888;28;948;-75
2023/12/31 03:25:45;;;;;;;;;;;;;;;21.95;27.39;98176.31;5037318;28;927;-75
2023/12/31 03:28:10;;;;;;;;;;;;;;;21.73;27.57;98187.38;5035591;28;1971;-75
2023/12/31 03:30:37;;;;;;;;;;;;;;;21.66;27.51;98181.91;5035985;28;1023;-75
2023/12/31 03:33:03;;;;;;;;;;;;;;;21.51;27.62;98186.31;5018228;28;1241;-75
2023/12/31 03:35:29;;;;;;;;;;;;;;;21.75;27.47;98196.22;5035911;28;1107;-75
2023/12/31 03:37:55;;;;;;;;;;;;;;;21.93;27.27;98201.47;5037623;28;1406;-75
2023/12/31 03:40:23;;;;;;;;;;;;;;;22.11;26.88;98206.72;5055018;28;956;-75
2023/12/31 03:42:49;;;;;;;;;;;;;;;22.34;26.70;98209.38;4994787;28;951;-75
2023/12/31 03:45:15;;;;;;;;;;;;;;;21.95;27.45;98209.53;4979096;28;956;-75
2023/12/31 03:47:40;;;;;;;;;;;;;;;21.55;27.64;98204.00;4978631;28;1996;-75
2023/12/31 03:50:06;;;;;;;;;;;;;;;21.62;27.51;98209.50;4962659;28;1050;-75
2023/12/31 03:52:32;;;;;;;;;;;;;;;21.84;27.11;98207.75;4962577;28;1792;-75
2023/12/31 03:54:58;;;;;;;;;;;;;;;21.91;27.39;98212.44;4955914;29;1339;-75
2023/12/31 03:57:24;;;;;;;;;;;;;;;21.93;27.32;98212.81;4956329;29;972;-75
2023/12/31 03:59:49;;;;;;;;;;;;;;;22.00;27.03;98217.50;4955691;28;968;-75
2023/12/31 04:02:16;;;;;;;;;;;;;;;21.96;27.24;98223.25;4956111;28;1311;-75
2023/12/31 04:04:42;;;;;;;;;;;;;;;21.95;27.38;98226.53;4955778;29;1060;-75
2023/12/31 04:07:07;;;;;;;;;;;;;;;21.84;27.15;98230.41;4956038;29;1069;-74
2023/12/31 04:09:33;;;;;;;;;;;;;;;21.63;27.38;98233.75;4925069;29;1899;-75
2023/12/31 04:11:58;;;;;;;;;;;;;;;21.83;27.36;98234.50;4936805;29;988;-75
2023/12/31 04:14:24;;;;;;;;;;;;;;;21.88;27.28;98243.72;4936962;29;1008;-74
2023/12/31 04:16:50;;;;;;;;;;;;;;;22.14;26.98;98244.72;4936647;29;1239;-75
2023/12/31 04:19:15;;;;;;;;;;;;;;;21.93;27.44;98246.81;4940761;28;1020;-75
2023/12/31 04:21:41;;;;;;;;;;;;;;;21.95;27.44;98249.19;4975083;28;1032;-75
2023/12/31 04:24:07;;;;;;;;;;;;;;;22.16;27.24;98254.38;4975117;28;961;-75
2023/12/31 04:26:33;;;;;;;;;;;;;;;21.90;27.25;98246.88;4974594;28;1149;-75
2023/12/31 04:28:58;;;;;;;;;;;;;;;21.71;27.54;98252.19;4974947;28;1902;-74
2023/12/31 04:31:24;;;;;;;;;;;;;;;21.65;27.68;98250.28;4976587;28;1011;-75
2023/12/31 04:33:50;;;;;;;;;;;;;;;21.81;27.63;98251.16;4978461;28;1192;-75
2023/12/31 04:36:15;;;;;;;;;;;;;;;21.91;27.52;98256.97;4976129;28;1770;-74
2023/12/31 04:38:41;;;;;;;;;;;;;;;22.07;27.29;98248.47;5037696;28;2116;-75
2023/12/31 04:41:06;;;;;;;;;;;;;;;22.19;27.15;98253.50;5036840;28;1008;-74
2023/12/31 04:43:32;;;;;;;;;;;;;;;21.70;27.46;98261.09;4977781;28;1148;-75
2023/12/31 04:45:57;;;;;;;;;;;;;;;21.70;27.26;98256.22;4961932;28;1019;-74
2023/12/31 04:48:23;;;;;;;;;;;;;;;21.61;27.67;98258.09;4938736;29;1970;-75
2023/12/31 04:50:50;;;;;;;;;;;;;;;21.56;28.08;98267.91;4938488;29;1859;-75
2023/12/31 04:53:20;;;;;;;;;;;;;;;21.91;27.54;98266.25;4938856;29;1794;-75
2023/12/31 04:55:46;;;;;;;;;;;;;;;22.02;27.20;98257.50;4939327;29;1134;-74
2023/12/31 04:58:11;;;;;;;;;;;;;;;22.04;27.34;98253.00;4955051;29;967;-75
2023/12/31 05:00:37;;;;;;;;;;;;;;;21.96;27.42;98256.44;4923620;29;1269;-75
2023/12/31 05:03:03;;;;;;;;;;;;;;;21.75;27.66;98264.22;4907867;29;1124;-75
2023/12/31 05:05:29;;;;;;;;;;;;;;;21.61;27.82;98261.72;4955489;29;997;-75
2023/12/31 05:07:55;;;;;;;;;;;;;;;21.61;27.76;98258.91;4937956;29;1972;-75
2023/12/31 05:10:20;;;;;;;;;;;;;;;21.87;27.66;98259.13;4973689;28;1363;-75
2023/12/31 05:12:46;;;;;;;;;;;;;;;22.06;27.47;98261.06;4961641;28;1273;-75
2023/12/31 05:15:11;;;;;;;;;;;;;;;22.17;27.30;98261.63;4946125;28;1137;-75
2023/12/31 05:17:37;;;;;;;;;;;;;;;21.89;27.47;98262.28;4978584;28;1109;-75
2023/12/31 05:20:02;;;;;;;;;;;;;;;21.92;27.34;98255.75;5011253;28;984;-75
2023/12/31 05:22:28;;;;;;;;;;;;;;;21.56;27.85;98265.88;4981475;28;982;-75
2023/12/31 05:24:54;;;;;;;;;;;;;;;21.44;28.22;98265.72;4980269;28;1512;-75
2023/12/31 05:27:19;;;;;;;;;;;;;;;21.84;27.62;98267.25;4996152;28;1832;-75
2023/12/31 05:29:45;;;;;;;;;;;;;;;21.64;27.67;98263.66;4980138;28;1975;-75
2023/12/31 05:32:10;;;;;;;;;;;;;;;21.80;27.77;98265.72;4996993;28;1520;-75
2023/12/31 05:34:36;;;;;;;;;;;;;;;21.66;27.53;98255.53;4997703;28;949;-75
2023/12/31 05:37:02;;;;;;;;;;;;;;;21.54;27.93;98253.38;4997329;28;962;-75
2023/12/31 05:39:27;;;;;;;;;;;;;;;21.41;27.86;98261.75;4980372;28;1414;-75
2023/12/31 05:41:53;;;;;;;;;;;;;;;21.76;27.98;98271.50;4997205;28;1019;-75
2023/12/31 05:44:19;;;;;;;;;;;;;;;22.08;27.32;98270.72;4997404;28;926;-75
2023/12/31 05:46:45;;;;;;;;;;;;;;;22.02;27.34;98271.69;4980869;28;923;-75
2023/12/31 05:49:10;;;;;;;;;;;;;;;21.74;27.67;98276.78;4981009;28;1914;-75
2023/12/31 05:51:36;;;;;;;;;;;;;;;21.70;27.60;98273.22;4981224;28;922;-75
2023/12/31 05:54:01;;;;;;;;;;;;;;;21.56;27.32;98273.56;4996348;28;1506;-75
2023/12/31 05:56:27;;;;;;;;;;;;;;;21.53;28.19;98274.44;4981295;28;1088;-75
2023/12/31 05:58:53;;;;;;;;;;;;;;;21.99;27.29;98283.91;4984298;28;1008;-75
2023/12/31 06:01:18;;;;;;;;;;;;;;;22.00;26.94;98288.34;5038931;28;922;-75
2023/12/31 06:03:44;;;;;;;;;;;;;;;22.05;26.86;98288.59;5039014;28;915;-75
2023/12/31 06:06:09;;;;;;;;;;;;;;;21.92;27.22;98289.75;5038796;28;870;-75
2023/12/31 06:08:35;;;;;;;;;;;;;;;21.81;27.16;98285.13;5038140;28;1894;-75
2023/12/31 06:11:01;;;;;;;;;;;;;;;21.94;27.19;98290.91;5037311;28;1231;-75
2023/12/31 06:13:26;;;;;;;;;;;;;;;21.79;27.23;98287.59;5038567;28;914;-75
2023/12/31 06:15:52;;;;;;;;;;;;;;;21.90;26.66;98295.03;5037608;28;1177;-75
2023/12/31 06:18:17;;;;;;;;;;;;;;;21.68;27.40;98292.69;5034537;28;1914;-75
2023/12/31 06:20:43;;;;;;;;;;;;;;;21.69;27.38;98288.63;5037249;28;1618;-75
2023/12/31 06:23:09;;;;;;;;;;;;;;;21.73;27.33;98291.38;5015513;28;1295;-75
2023/12/31 06:25:34;;;;;;;;;;;;;;;21.88;27.29;98289.03;5017643;28;1248;-75
2023/12/31 06:28:00;;;;;;;;;;;;;;;21.93;26.94;98297.00;5017069;28;1961;-75
2023/12/31 06:30:25;;;;;;;;;;;;;;;21.73;27.26;98299.88;5018616;28;888;-75
2023/12/31 06:32:51;;;;;;;;;;;;;;;21.68;27.32;98298.38;5033517;28;903;-75
2023/12/31 06:35:17;;;;;;;;;;;;;;;21.59;27.80;98307.44;5016914;28;1062;-75
2023/12/31 06:37:42;;;;;;;;;;;;;;;21.91;26.93;98316.47;5034457;28;1574;-75
2023/12/31 06:40:08;;;;;;;;;;;;;;;21.93;27.05;98314.00;5002891;28;1320;-75
2023/12/31 06:42:34;;;;;;;;;;;;;;;21.99;27.08;98312.25;5003272;28;1014;-75
2023/12/31 06:44:59;;;;;;;;;;;;;;;22.24;26.59;98306.81;5019241;28;1026;-75
2023/12/31 06:47:25;;;;;;;;;;;;;;;22.00;26.94;98313.84;5002247;28;1626;-75
2023/12/31 06:49:52;;;;;;;;;;;;;;;21.71;27.33;98313.66;5018841;28;1910;-75
2023/12/31 06:52:18;;;;;;;;;;;;;;;21.67;27.17;98319.44;4998981;28;1264;-75
2023/12/31 06:54:43;;;;;;;;;;;;;;;21.42;27.76;98313.50;5015526;28;1007;-75
2023/12/31 06:57:09;;;;;;;;;;;;;;;21.76;27.07;98325.31;4998344;28;1390;-75
2023/12/31 06:59:35;;;;;;;;;;;;;;;22.03;26.64;98329.97;4996124;28;1528;-75
2023/12/31 07:02:00;;;;;;;;;;;;;;;21.80;27.37;98328.84;4979779;28;952;-75
2023/12/31 07:04:26;;;;;;;;;;;;;;;21.97;26.91;98326.06;4996003;28;1044;-75
2023/12/31 07:06:51;;;;;;;;;;;;;;;21.89;26.82;98330.28;4979391;28;1037;-75
2023/12/31 07:09:17;;;;;;;;;;;;;;;21.76;26.93;98321.66;4994039;28;1919;-75
2023/12/31 07:11:43;;;;;;;;;;;;;;;21.53;27.39;98331.06;5020910;28;1360;-74
2023/12/31 07:14:08;;;;;;;;;;;;;;;21.81;26.98;98338.13;5002457;28;1322;-75
2023/12/31 07:16:34;;;;;;;;;;;;;;;21.69;27.34;98338.81;5018554;28;1071;-75
2023/12/31 07:18:59;;;;;;;;;;;;;;;21.77;27.25;98341.06;5034896;28;935;-75
2023/12/31 07:21:25;;;;;;;;;;;;;;;22.08;26.81;98338.75;4998628;28;1099;-75
2023/12/31 07:23:51;;;;;;;;;;;;;;;21.89;26.82;98341.63;5029636;28;954;-74
2023/12/31 07:26:23;;;;;;;;;;;;;;;21.58;27.17;98351.16;5017919;28;1333;-75
2023/12/31 07:28:49;;;;;;;;;;;;;;;21.78;27.17;98347.53;5018206;28;1983;-75
2023/12/31 07:31:15;;;;;;;;;;;;;;;21.75;27.30;98349.19;5018494;28;957;-74
2023/12/31 07:33:40;;;;;;;;;;;;;;;21.79;27.48;98351.94;5014405;28;1011;-75
2023/12/31 07:36:06;;;;;;;;;;;;;;;21.85;27.12;98353.81;5014543;28;995;-75
2023/12/31 07:38:32;;;;;;;;;;;;;;;21.67;27.51;98356.25;4975675;28;1428;-74
2023/12/31 07:40:57;;;;;;;;;;;;;;;21.55;27.75;98366.22;4975184;28;1267;-75
2023/12/31 07:43:23;;;;;;;;;;;;;;;21.50;27.63;98360.22;4975874;28;1100;-75
2023/12/31 07:45:48;;;;;;;;;;;;;;;21.51;27.94;98368.31;4959649;28;1139;-75
2023/12/31 07:48:14;;;;;;;;;;;;;;;21.78;27.35;98368.13;4975257;28;2104;-75
2023/12/31 07:50:40;;;;;;;;;;;;;;;21.73;27.53;98368.66;4959430;28;1236;-75
2023/12/31 07:53:05;;;;;;;;;;;;;;;21.68;27.75;98377.66;4962027;28;920;-75
2023/12/31 07:55:31;;;;;;;;;;;;;;;21.71;27.51;98388.13;4994577;28;1388;-75
2023/12/31 07:57:56;;;;;;;;;;;;;;;21.57;27.85;98382.75;4994942;28;984;-75
2023/12/31 08:00:22;;;;;;;;;;;;;;;21.79;27.79;98389.56;5010965;28;943;-75
2023/12/31 08:02:48;;;;;;;;;;;;;;;21.68;27.95;98389.00;4994672;28;1063;-75
2023/12/31 08:05:13;;;;;;;;;;;;;;;21.95;27.31;98390.84;4994782;28;1004;-75
2023/12/31 08:07:39;;;;;;;;;;;;;;;21.83;27.82;98395.16;4994813;28;1980;-75
2023/12/31 08:10:05;;;;;;;;;;;;;;;22.05;27.34;98395.50;5023468;28;1398;-75
2023/12/31 08:12:31;;;;;;;;;;;;;;;21.75;27.52;98399.38;5036533;28;896;-74
2023/12/31 08:14:56;;;;;;;;;;;;;;;21.55;27.65;98407.84;5017332;28;1130;-75
2023/12/31 08:17:23;;;;;;;;;;;;;;;21.91;27.68;98407.13;5017102;28;1246;-75
2023/12/31 08:19:49;;;;;;;;;;;;;;;21.68;27.77;98405.97;5017841;28;994;-75
2023/12/31 08:22:14;;;;;;;;;;;;;;;22.13;27.41;98408.31;5000699;28;938;-75
2023/12/31 08:24:40;;;;;;;;;;;;;;;22.10;27.49;98420.47;5033826;28;1002;-75
2023/12/31 08:27:05;;;;;;;;;;;;;;;21.88;27.70;98413.69;5027934;28;1353;-75
2023/12/31 08:29:31;;;;;;;;;;;;;;;21.90;27.47;98420.50;5029585;28;1965;-75
2023/12/31 08:31:56;;;;;;;;;;;;;;;21.68;27.64;98414.47;5012061;28;1870;-75
2023/12/31 08:34:22;;;;;;;;;;;;;;;21.66;27.61;98408.47;5015696;28;1086;-75
2023/12/31 08:36:48;;;;;;;;;;;;;;;21.87;27.86;98412.09;5011654;28;1305;-75
2023/12/31 08:39:13;;;;;;;;;;;;;;;21.70;28.22;98402.72;5017581;28;884;-75
2023/12/31 08:41:39;;;;;;;;;;;;;;;21.84;27.92;98406.03;5017032;28;1039;-75
2023/12/31 08:44:04;;;;;;;;;;;;;;;21.79;28.19;98400.88;5033632;28;1027;-75
2023/12/31 08:46:30;;;;;;;;;;;;;;;21.74;28.21;98404.22;5028728;28;1184;-75
2023/12/31 08:48:56;;;;;;;;;;;;;;;21.79;27.91;98406.56;5034560;28;1969;-75
2023/12/31 08:51:21;;;;;;;;;;;;;;;21.44;28.22;98407.28;5022675;28;1328;-75
2023/12/31 08:53:47;;;;;;;;;;;;;;;21.42;28.60;98410.56;5005263;28;1435;-75
2023/12/31 08:56:12;;;;;;;;;;;;;;;21.78;28.16;98402.13;5018041;28;1322;-75
2023/12/31 08:58:38;;;;;;;;;;;;;;;21.99;27.78;98397.25;5035839;28;959;-75
2023/12/31 09:01:04;;;;;;;;;;;;;;;21.79;28.11;98395.22;5014337;28;1489;-75
2023/12/31 09:03:29;;;;;;;;;;;;;;;21.50;28.57;98397.03;4997397;28;934;-75
2023/12/31 09:05:55;;;;;;;;;;;;;;;21.55;28.50;98391.69;5036839;28;1405;-75
2023/12/31 09:08:20;;;;;;;;;;;;;;;21.66;28.67;98384.97;5053255;28;1910;-75
2023/12/31 09:10:46;;;;;;;;;;;;;;;22.06;27.76;98391.41;5035219;28;1330;-75
2023/12/31 09:13:12;;;;;;;;;;;;;;;21.87;27.90;98389.44;5036828;28;1000;-75
2023/12/31 09:15:37;;;;;;;;;;;;;;;21.71;28.28;98388.13;5053072;28;1005;-75
2023/12/31 09:18:03;;;;;;;;;;;;;;;21.68;28.14;98389.00;5020181;28;1046;-75
2023/12/31 09:20:29;;;;;;;;;;;;;;;21.64;28.26;98381.81;5020314;28;1366;-75
2023/12/31 09:22:55;;;;;;;;;;;;;;;22.07;28.12;98385.31;5036246;28;974;-75
2023/12/31 09:25:20;;;;;;;;;;;;;;;22.22;27.51;98380.13;5053264;28;999;-75
2023/12/31 09:27:46;;;;;;;;;;;;;;;22.16;27.79;98381.91;5035219;28;1906;-75
2023/12/31 09:30:12;;;;;;;;;;;;;;;21.53;28.57;98377.16;5036470;28;994;-75
2023/12/31 09:32:37;;;;;;;;;;;;;;;21.83;27.90;98367.63;4980782;28;1132;-75
2023/12/31 09:35:04;;;;;;;;;;;;;;;21.78;28.26;98376.63;5013123;28;1071;-75
2023/12/31 09:37:29;;;;;;;;;;;;;;;21.84;28.41;98363.56;4996980;28;1164;-75
2023/12/31 09:39:55;;;;;;;;;;;;;;;21.61;28.73;98360.84;4996986;28;1080;-75
2023/12/31 09:42:27;;;;;;;;;;;;;;;21.81;28.25;98364.44;4976494;28;1456;-75
2023/12/31 09:44:53;;;;;;;;;;;;;;;21.82;27.86;98360.38;4977283;28;1279;-75
2023/12/31 09:47:18;;;;;;;;;;;;;;;21.78;27.97;98358.84;4976134;28;2007;-75
2023/12/31 09:49:44;;;;;;;;;;;;;;;21.55;28.50;98352.06;4944865;28;1910;-75
2023/12/31 09:52:09;;;;;;;;;;;;;;;21.77;28.40;98358.06;4992247;28;1482;-75
2023/12/31 09:54:38;;;;;;;;;;;;;;;21.97;27.82;98348.72;4987933;28;1670;-75
2023/12/31 09:57:04;;;;;;;;;;;;;;;21.77;28.45;98352.38;4974428;28;1147;-75
2023/12/31 09:59:30;;;;;;;;;;;;;;;21.54;28.69;98346.81;4977412;28;1579;-75
2023/12/31 10:01:58;;;;;;;;;;;;;;;21.68;28.01;98355.00;4978984;28;2186;-75
2023/12/31 10:04:24;;;;;;;;;;;;;;;21.70;28.57;98348.91;4958774;28;1728;-75
2023/12/31 10:06:50;;;;;;;;;;;;;;;22.02;27.98;98339.69;4993485;28;1117;-75
2023/12/31 10:09:19;;;;;;;;;;;;;;;22.24;27.57;98345.69;4992658;28;1910;-75
2023/12/31 10:11:45;;;;;;;;;;;;;;;21.49;28.65;98344.47;5016431;28;1360;-75
2023/12/31 10:14:13;;;;;;;;;;;;;;;21.78;27.90;98348.31;5016291;28;985;-75
2023/12/31 10:16:46;;;;;;;;;;;;;;;21.69;28.46;98345.28;4983895;28;929;-75
2023/12/31 10:19:14;;;;;;;;;;;;;;;21.82;28.08;98340.53;5004891;28;2063;-75
2023/12/31 10:21:41;;;;;;;;;;;;;;;21.85;28.40;98336.81;5007102;28;1665;-74
2023/12/31 10:24:07;;;;;;;;;;;;;;;21.96;28.20;98335.78;5032166;28;1624;-75
2023/12/31 10:26:33;;;;;;;;;;;;;;;21.76;28.32;98339.47;5036072;28;936;-75
2023/12/31 10:28:58;;;;;;;;;;;;;;;21.85;27.91;98336.81;5036013;28;1969;-75
2023/12/31 10:31:27;;;;;;;;;;;;;;;21.85;28.39;98330.34;5035848;28;969;-75
2023/12/31 10:33:53;;;;;;;;;;;;;;;21.67;28.47;98336.44;5015566;28;958;-75
2023/12/31 10:36:24;;;;;;;;;;;;;;;21.78;28.56;98342.66;4999843;28;1236;-75
2023/12/31 10:38:50;;;;;;;;;;;;;;;21.87;28.16;98332.78;5001200;28;1903;-75
2023/12/31 10:41:17;;;;;;;;;;;;;;;22.09;27.78;98340.34;4999541;28;1224;-75
2023/12/31 10:43:46;;;;;;;;;;;;;;;22.17;27.73;98331.69;4998408;28;1914;-75
2023/12/31 10:46:15;;;;;;;;;;;;;;;22.00;28.11;98330.84;4999560;28;1014;-75
2023/12/31 10:48:49;;;;;;;;;;;;;;;21.82;28.05;98320.72;4982828;28;1984;-75
2023/12/31 10:51:18;;;;;;;;;;;;;;;21.66;27.92;98317.84;4999470;28;1502;-75
2023/12/31 10:53:43;;;;;;;;;;;;;;;21.84;28.32;98306.91;4999304;28;995;-75
2023/12/31 10:56:09;;;;;;;;;;;;;;;21.83;28.42;98302.47;4999356;28;1362;-75
2023/12/31 10:58:35;;;;;;;;;;;;;;;21.92;28.01;98304.72;4998773;28;1880;-75
2023/12/31 11:01:00;;;;;;;;;;;;;;;21.73;28.52;98299.88;4976594;28;989;-75
2023/12/31 11:03:27;;;;;;;;;;;;;;;21.59;28.41;98310.28;4976264;28;994;-75
2023/12/31 11:05:52;;;;;;;;;;;;;;;21.55;28.55;98300.25;4976752;28;964;-75
2023/12/31 11:08:19;;;;;;;;;;;;;;;21.89;28.19;98294.25;4976247;28;1894;-75
2023/12/31 11:10:46;;;;;;;;;;;;;;;21.91;28.14;98299.47;5010922;28;1274;-75
2023/12/31 11:13:12;;;;;;;;;;;;;;;21.93;27.95;98297.00;4996544;28;1660;-74
2023/12/31 11:15:38;;;;;;;;;;;;;;;21.85;28.33;98297.16;4985532;28;1667;-75
2023/12/31 11:18:10;;;;;;;;;;;;;;;21.66;28.25;98288.69;5015294;28;912;-75
2023/12/31 11:20:38;;;;;;;;;;;;;;;21.70;28.42;98290.22;5015050;28;1021;-75
2023/12/31 11:23:04;;;;;;;;;;;;;;;21.99;28.10;98295.25;5015107;28;1092;-75
2023/12/31 11:25:30;;;;;;;;;;;;;;;22.07;27.73;98285.31;5015049;28;959;-75
2023/12/31 11:27:57;;;;;;;;;;;;;;;21.89;27.88;98290.63;4998535;28;1898;-75
2023/12/31 11:30:41;;;;;;;;;;;;;;;22.01;27.61;98287.09;5011778;28;1948;-75
2023/12/31 11:33:07;;;;;;;;;;;;;;;21.53;28.61;98285.75;5053917;28;1427;-75
2023/12/31 11:35:42;;;;;;;;;;;;;;;21.58;28.52;98282.41;5037987;28;970;-75
2023/12/31 11:38:08;;;;;;;;;;;;;;;21.89;28.12;98284.97;5021572;28;1156;-75
2023/12/31 11:40:36;;;;;;;;;;;;;;;21.93;28.00;98280.00;5037985;28;1156;-75
2023/12/31 11:43:19;;;;;;;;;;;;;;;22.18;27.61;98283.06;5037757;28;929;-75
2023/12/31 11:45:46;;;;;;;;;;;;;;;21.98;28.04;98271.00;5042359;28;1936;-75
2023/12/31 11:48:17;;;;;;;;;;;;;;;21.78;28.26;98274.66;5017680;28;1899;-75
2023/12/31 11:50:42;;;;;;;;;;;;;;;21.64;27.97;98274.19;5034173;28;921;-75
2023/12/31 11:53:10;;;;;;;;;;;;;;;21.73;28.12;98272.34;5018340;28;1066;-75
2023/12/31 11:55:37;;;;;;;;;;;;;;;21.87;28.17;98271.25;5017930;28;1323;-74
2023/12/31 11:58:03;;;;;;;;;;;;;;;22.10;27.94;98267.44;5034387;28;1005;-75
2023/12/31 12:00:28;;;;;;;;;;;;;;;22.12;27.61;98264.97;5025172;28;1940;-75
2023/12/31 12:02:54;;;;;;;;;;;;;;;21.99;27.86;98272.56;5036401;28;1946;-75
2023/12/31 12:05:20;;;;;;;;;;;;;;;21.90;28.00;98273.19;5036580;28;991;-75
2023/12/31 12:07:45;;;;;;;;;;;;;;;21.83;27.84;98265.66;5035313;28;1973;-75
2023/12/31 12:10:11;;;;;;;;;;;;;;;21.81;28.39;98267.31;5035373;28;1003;-75
2023/12/31 12:12:37;;;;;;;;;;;;;;;21.98;27.77;98256.81;5036144;28;860;-76
2023/12/31 12:15:03;;;;;;;;;;;;;;;22.18;27.59;98266.06;5036307;28;935;-75
2023/12/31 12:17:29;;;;;;;;;;;;;;;21.93;27.87;98252.47;5000764;28;1672;-75
2023/12/31 12:19:54;;;;;;;;;;;;;;;21.63;28.36;98256.41;5034909;28;925;-75
2023/12/31 12:22:20;;;;;;;;;;;;;;;21.54;28.52;98261.88;5034595;28;1879;-75
2023/12/31 12:24:46;;;;;;;;;;;;;;;21.87;28.06;98259.91;5018619;28;902;-75
2023/12/31 12:27:11;;;;;;;;;;;;;;;21.79;28.23;98262.09;5034771;28;948;-75
2023/12/31 12:29:40;;;;;;;;;;;;;;;21.82;28.24;98258.41;5018517;28;1938;-75
2023/12/31 12:32:06;;;;;;;;;;;;;;;21.88;28.19;98260.72;5034866;28;1126;-74
2023/12/31 12:34:32;;;;;;;;;;;;;;;21.71;28.20;98246.53;5018659;28;1083;-75
2023/12/31 12:36:59;;;;;;;;;;;;;;;21.77;28.20;98256.09;5016904;28;1611;-75
2023/12/31 12:39:24;;;;;;;;;;;;;;;21.84;27.90;98255.13;5036110;28;1132;-75
2023/12/31 12:41:50;;;;;;;;;;;;;;;21.98;28.13;98254.00;5034527;28;917;-75
2023/12/31 12:44:16;;;;;;;;;;;;;;;22.03;27.90;98248.59;5034985;28;998;-75
2023/12/31 12:46:42;;;;;;;;;;;;;;;22.02;27.82;98246.16;5036443;28;1023;-75
2023/12/31 12:49:08;;;;;;;;;;;;;;;21.93;27.72;98241.16;5018308;28;2159;-75
2023/12/31 12:51:34;;;;;;;;;;;;;;;21.58;28.38;98249.22;5033883;28;1879;-75
2023/12/31 12:54:00;;;;;;;;;;;;;;;21.83;28.36;98253.53;5035122;28;1854;-75